Time;durP1;ratioP1;P1;durP2;ratioP2;P2;SDS_P1;SDS_P2;PMS_P1;PMS_P2;Temp;Humidity;BMP_temperature;BMP_pressure;BME280_temperature;BME280_humidity;BME280_pressure;Samples;Min_cycle;Max_cycle;Signal;HPM_P1;HPM_P2
2022/09/15 00:00:49;;;;;;;3.90;1.23;;;;;;;14.95;100.00;100690.75;5060012;28;20459;-68
2022/09/15 00:03:14;;;;;;;4.47;1.10;;;;;;;14.95;100.00;100690.75;5073325;28;20541;-68
2022/09/15 00:05:39;;;;;;;4.68;1.33;;;;;;;15.00;100.00;100694.25;5091578;28;20039;-68
2022/09/15 00:08:05;;;;;;;5.28;1.40;;;;;;;14.96;100.00;100696.91;5080989;28;20128;-68
2022/09/15 00:10:30;;;;;;;4.22;0.95;;;;;;;14.95;100.00;100700.47;5083022;28;20032;-68
2022/09/15 00:12:56;;;;;;;5.53;1.08;;;;;;;14.90;100.00;100691.66;5073005;28;20035;-68
2022/09/15 00:15:22;;;;;;;2.85;1.00;;;;;;;14.93;100.00;100697.81;5056373;28;20033;-66
2022/09/15 00:17:49;;;;;;;7.93;1.38;;;;;;;14.92;100.00;100695.16;5073604;28;20028;-68
2022/09/15 00:20:17;;;;;;;4.10;0.88;;;;;;;14.97;100.00;100693.38;5070882;28;20115;-68
2022/09/15 00:22:42;;;;;;;6.18;1.20;;;;;;;15.05;100.00;100688.06;5089414;28;20039;-68
2022/09/15 00:25:09;;;;;;;6.97;1.50;;;;;;;15.02;100.00;100688.94;5088990;28;20023;-67
2022/09/15 00:27:34;;;;;;;7.65;1.38;;;;;;;15.02;100.00;100686.31;5077665;28;20391;-68
2022/09/15 00:30:00;;;;;;;3.20;1.20;;;;;;;14.99;100.00;100686.31;5070785;28;20029;-67
2022/09/15 00:32:25;;;;;;;3.40;1.30;;;;;;;14.98;100.00;100689.84;5072957;28;20062;-68
2022/09/15 00:34:52;;;;;;;3.30;1.27;;;;;;;14.99;100.00;100691.63;5063729;28;20052;-67
2022/09/15 00:37:18;;;;;;;5.35;1.73;;;;;;;14.99;100.00;100681.03;5072985;28;20021;-68
2022/09/15 00:39:43;;;;;;;3.58;2.92;;;;;;;14.97;100.00;100685.44;5072423;28;20503;-68
2022/09/15 00:42:16;;;;;;;4.30;2.20;;;;;;;15.04;100.00;100694.25;5056717;28;20082;-67
2022/09/15 00:44:55;;;;;;;;;;;;;;;15.10;100.00;100689.78;5089838;28;20032;-68
2022/09/15 00:47:26;;;;;;;9.77;3.80;;;;;;;15.22;100.00;100687.97;5073282;28;19982;-68
2022/09/15 00:49:58;;;;;;;8.93;3.92;;;;;;;15.27;100.00;100692.34;5073369;28;20028;-68
2022/09/15 00:52:36;;;;;;;6.65;3.13;;;;;;;15.36;100.00;100694.09;5075046;28;20431;-69
2022/09/15 00:55:08;;;;;;;6.85;3.72;;;;;;;15.45;100.00;100696.69;5075906;28;20028;-69
2022/09/15 00:57:40;;;;;;;6.75;3.00;;;;;;;15.51;100.00;100696.63;5084709;28;20051;-67
2022/09/15 01:00:10;;;;;;;6.93;2.80;;;;;;;15.58;100.00;100697.47;5082295;28;20440;-68
2022/09/15 01:02:36;;;;;;;7.28;2.83;;;;;;;15.65;100.00;100693.91;5073382;28;20100;-67
2022/09/15 01:05:06;;;;;;;4.05;2.65;;;;;;;15.69;100.00;100700.06;5075577;28;20664;-66
2022/09/15 01:07:39;;;;;;;6.63;2.60;;;;;;;15.75;100.00;100700.03;5072152;28;20033;-67
2022/09/15 01:10:07;;;;;;;;;;;;;;;15.79;100.00;100693.81;5071524;28;20452;-68
2022/09/15 01:12:32;;;;;;;5.38;2.95;;;;;;;15.82;100.00;100698.25;5082793;28;19924;-66
2022/09/15 01:15:01;;;;;;;8.27;3.45;;;;;;;15.85;100.00;100696.44;5077272;28;20440;-68
2022/09/15 01:18:17;;;;;;;7.13;2.38;;;;;;;15.83;100.00;100692.91;5064199;28;20115;-68
2022/09/15 01:20:57;;;;;;;8.23;2.38;;;;;;;15.83;100.00;100694.72;5056412;28;20086;-67
2022/09/15 01:23:34;;;;;;;4.38;2.45;;;;;;;15.83;100.00;100692.91;5072852;28;20029;-68
2022/09/15 01:26:12;;;;;;;4.25;2.17;;;;;;;15.84;100.00;100705.31;5080587;28;20024;-68
2022/09/15 01:28:56;;;;;;;7.65;2.40;;;;;;;15.87;100.00;100703.50;5078094;28;20115;-68
2022/09/15 01:33:02;;;;;;;7.32;1.92;;;;;;;15.89;100.00;100701.72;5074463;28;20135;-67
2022/09/15 01:34:32;;;;;;;5.67;1.83;;;;;;;15.89;100.00;100709.69;5059272;28;20048;-67
2022/09/15 01:37:05;;;;;;;5.25;1.60;;;;;;;15.93;100.00;100703.47;5071199;28;20281;-66
2022/09/15 01:39:38;;;;;;;8.27;1.70;;;;;;;15.93;100.00;100706.13;5083810;28;20032;-66
2022/09/15 01:42:07;;;;;;;3.17;1.30;;;;;;;15.90;100.00;100704.38;5079157;28;20036;-68
2022/09/15 01:44:39;;;;;;;8.02;1.80;;;;;;;15.86;100.00;100699.97;5081533;28;20031;-68
2022/09/15 01:47:08;;;;;;;5.63;1.15;;;;;;;15.81;100.00;100697.34;5076278;28;20115;-67
2022/09/15 01:49:41;;;;;;;10.02;1.55;;;;;;;15.78;100.00;100710.59;5094746;28;20379;-68
2022/09/15 01:52:07;;;;;;;6.40;1.35;;;;;;;15.75;100.00;100708.00;5087100;28;20016;-67
2022/09/15 01:54:38;;;;;;;2.55;1.40;;;;;;;15.70;100.00;100711.56;5088757;28;20502;-67
2022/09/15 01:57:04;;;;;;;9.40;1.52;;;;;;;15.67;100.00;100707.16;5071790;28;20050;-67
2022/09/15 01:59:30;;;;;;;9.18;1.77;;;;;;;15.62;100.00;100714.25;5078306;28;20044;-68
2022/09/15 02:02:03;;;;;;;6.35;1.40;;;;;;;15.58;100.00;100713.38;5086166;28;20027;-67
2022/09/15 02:04:38;;;;;;;9.35;2.10;;;;;;;15.56;100.00;100703.69;5076927;28;20036;-68
2022/09/15 02:07:37;;;;;;;6.40;1.80;;;;;;;15.54;100.00;100708.13;5077572;28;20028;-68
2022/09/15 02:10:12;;;;;;;5.68;1.60;;;;;;;15.49;100.00;100709.03;5076981;28;20074;-69
2022/09/15 02:12:56;;;;;;;6.93;1.63;;;;;;;15.45;100.00;100704.63;5084207;28;20505;-69
2022/09/15 02:15:34;;;;;;;4.70;1.52;;;;;;;15.43;100.00;100714.34;5078143;28;20031;-67
2022/09/15 02:18:02;;;;;;;8.45;1.65;;;;;;;15.43;100.00;100713.50;5084332;28;20059;-67
2022/09/15 02:20:37;;;;;;;9.10;1.63;;;;;;;15.42;100.00;100707.28;5080727;28;20103;-67
2022/09/15 02:23:08;;;;;;;9.25;1.92;;;;;;;15.40;100.00;100703.78;5076920;28;20024;-67
2022/09/15 02:25:40;;;;;;;4.00;1.38;;;;;;;15.41;100.00;100704.66;5078809;28;20029;-67
2022/09/15 02:28:08;;;;;;;6.07;1.40;;;;;;;15.36;100.00;100707.34;5072660;28;20341;-68
2022/09/15 02:30:40;;;;;;;6.13;1.40;;;;;;;15.33;100.00;100707.38;5072679;28;20033;-68
2022/09/15 02:33:08;;;;;;;9.18;1.50;;;;;;;15.29;100.00;100717.09;5074651;28;20025;-67
2022/09/15 02:35:35;;;;;;;7.13;1.35;;;;;;;15.28;100.00;100719.75;5077785;28;20134;-68
2022/09/15 02:38:04;;;;;;;6.15;1.60;;;;;;;15.25;100.00;100717.13;5056806;28;20476;-68
2022/09/15 02:40:31;;;;;;;10.27;1.83;;;;;;;15.26;100.00;100710.91;5078383;28;20480;-68
2022/09/15 02:43:00;;;;;;;4.20;1.45;;;;;;;15.25;100.00;100715.34;5074254;28;20056;-68
2022/09/15 02:45:26;;;;;;;5.45;1.30;;;;;;;15.25;100.00;100720.66;5074425;28;20025;-69
2022/09/15 02:47:52;;;;;;;3.40;1.48;;;;;;;15.27;100.00;100723.28;5074375;28;20032;-69
2022/09/15 02:50:19;;;;;;;3.00;1.40;;;;;;;15.26;100.00;100717.13;5089458;28;20233;-68
2022/09/15 02:52:45;;;;;;;6.90;1.75;;;;;;;15.28;100.00;100719.75;5083583;28;20025;-68
2022/09/15 02:55:10;;;;;;;8.10;1.60;;;;;;;15.28;100.00;100717.97;5076202;28;20116;-67
2022/09/15 02:57:36;;;;;;;2.97;1.00;;;;;;;15.28;100.00;100710.03;5095309;28;20015;-68
2022/09/15 03:00:13;;;;;;;7.72;1.27;;;;;;;15.29;100.00;100709.13;5077769;28;20043;-68
2022/09/15 03:02:40;;;;;;;5.35;1.40;;;;;;;15.27;100.00;100718.84;5062479;28;20489;-67
2022/09/15 03:05:07;;;;;;;5.03;1.10;;;;;;;15.26;100.00;100716.22;5061778;28;20589;-69
2022/09/15 03:07:32;;;;;;;6.13;1.35;;;;;;;15.24;100.00;100712.72;5074790;28;20036;-68
2022/09/15 03:09:57;;;;;;;4.78;1.73;;;;;;;15.20;100.00;100717.13;5082172;28;20044;-69
2022/09/15 03:12:24;;;;;;;7.07;1.20;;;;;;;15.20;100.00;100716.25;5074942;28;20490;-67
2022/09/15 03:14:50;;;;;;;4.13;1.10;;;;;;;15.22;100.00;100725.06;5076528;28;20414;-68
2022/09/15 03:17:16;;;;;;;3.95;1.10;;;;;;;15.23;100.00;100724.19;5073857;28;20028;-69
2022/09/15 03:19:41;;;;;;;5.80;1.13;;;;;;;15.25;100.00;100725.09;5074109;28;20048;-67
2022/09/15 03:22:08;;;;;;;4.32;0.95;;;;;;;15.25;100.00;100725.94;5073677;28;20107;-67
2022/09/15 03:24:33;;;;;;;2.30;0.68;;;;;;;15.24;100.00;100728.63;5088467;28;20024;-68
2022/09/15 03:26:59;;;;;;;2.72;1.10;;;;;;;15.26;100.00;100737.41;5081934;28;20043;-67
2022/09/15 03:29:24;;;;;;;5.72;0.73;;;;;;;15.25;100.00;100735.69;5065349;28;20074;-68
2022/09/15 03:31:50;;;;;;;3.33;0.85;;;;;;;15.26;100.00;100735.66;5078174;28;20032;-67
2022/09/15 03:34:15;;;;;;;3.33;0.90;;;;;;;15.22;100.00;100735.69;5070219;28;20048;-67
2022/09/15 03:36:41;;;;;;;6.25;1.05;;;;;;;15.19;100.00;100733.91;5084899;28;20545;-68
2022/09/15 03:39:06;;;;;;;3.55;0.88;;;;;;;15.16;100.00;100737.47;5073250;28;20024;-66
2022/09/15 03:41:31;;;;;;;7.28;0.90;;;;;;;15.13;100.00;100728.66;5073692;28;20028;-68
2022/09/15 03:43:56;;;;;;;2.88;0.70;;;;;;;15.10;100.00;100721.59;5075383;28;20024;-68
2022/09/15 03:46:22;;;;;;;1.52;0.73;;;;;;;15.09;100.00;100729.56;5066593;28;20059;-68
2022/09/15 03:48:47;;;;;;;3.20;1.10;;;;;;;15.09;100.00;100719.81;5075176;28;20025;-68
2022/09/15 03:51:13;;;;;;;5.07;1.25;;;;;;;15.08;100.00;100733.97;5081860;28;20476;-67
2022/09/15 03:53:40;;;;;;;2.95;1.00;;;;;;;15.08;100.00;100733.97;5073537;28;20032;-67
2022/09/15 03:56:23;;;;;;;7.07;0.98;;;;;;;15.09;100.00;100734.84;5055749;28;20407;-68
2022/09/15 03:58:49;;;;;;;6.17;1.30;;;;;;;15.09;100.00;100734.84;5061983;28;20017;-67
2022/09/15 04:01:16;;;;;;;8.00;1.10;;;;;;;15.09;100.00;100733.06;5072819;28;20349;-67
2022/09/15 04:03:41;;;;;;;3.17;0.80;;;;;;;15.12;100.00;100741.00;5072959;28;21503;-69
2022/09/15 04:06:06;;;;;;;3.70;0.88;;;;;;;15.13;100.00;100733.97;5072784;28;20029;-70
2022/09/15 04:08:32;;;;;;;2.95;0.70;;;;;;;15.16;100.00;100731.28;5080907;28;20047;-69
2022/09/15 04:10:59;;;;;;;3.20;0.95;;;;;;;15.13;100.00;100731.31;5080795;28;20035;-68
2022/09/15 04:13:24;;;;;;;4.10;0.95;;;;;;;15.14;100.00;100733.94;5073200;28;20089;-68
2022/09/15 04:15:58;;;;;;;5.95;1.10;;;;;;;15.15;100.00;100742.75;5087600;28;20028;-68
2022/09/15 04:18:24;;;;;;;6.18;1.10;;;;;;;15.13;100.00;100742.78;5075184;28;20089;-68
2022/09/15 04:20:49;;;;;;;3.92;1.00;;;;;;;15.12;100.00;100741.00;5086933;28;20021;-68
2022/09/15 04:23:15;;;;;;;3.17;1.38;;;;;;;15.13;100.00;100745.44;5074697;28;20055;-68
2022/09/15 04:25:41;;;;;;;7.32;1.42;;;;;;;15.13;100.00;100745.44;5076510;28;20380;-68
2022/09/15 04:28:06;;;;;;;6.80;1.20;;;;;;;15.12;100.00;100748.97;5071291;28;20036;-68
2022/09/15 04:30:31;;;;;;;3.53;0.93;;;;;;;15.16;100.00;100745.41;5078980;28;20504;-68
2022/09/15 04:32:57;;;;;;;4.78;0.93;;;;;;;15.16;100.00;100741.88;5077535;28;20025;-68
2022/09/15 04:35:22;;;;;;;3.08;0.90;;;;;;;15.16;100.00;100744.53;5070704;28;20036;-69
2022/09/15 04:37:47;;;;;;;0.70;0.70;;;;;;;15.17;100.00;100741.88;5075933;28;20063;-68
2022/09/15 04:40:13;;;;;;;7.05;1.00;;;;;;;15.18;100.00;100748.94;5091576;28;20500;-69
2022/09/15 04:42:38;;;;;;;3.42;0.80;;;;;;;15.15;100.00;100745.41;5073918;28;20020;-68
2022/09/15 04:45:06;;;;;;;6.13;1.00;;;;;;;15.16;100.00;100742.75;5082107;28;20384;-69
2022/09/15 04:47:31;;;;;;;4.65;0.70;;;;;;;15.17;100.00;100743.66;5071074;28;20051;-69
2022/09/15 04:49:57;;;;;;;5.35;1.00;;;;;;;15.17;100.00;100741.88;5081892;28;20063;-68
2022/09/15 04:52:23;;;;;;;7.65;1.55;;;;;;;15.16;100.00;100740.09;5072070;28;20078;-69
2022/09/15 04:54:48;;;;;;;3.10;0.93;;;;;;;15.18;100.00;100743.66;5072525;28;20039;-68
2022/09/15 04:57:14;;;;;;;5.70;1.05;;;;;;;15.18;100.00;100743.66;5072185;28;20426;-67
2022/09/15 04:59:39;;;;;;;0.82;0.60;;;;;;;15.16;100.00;100737.47;5079952;28;20035;-67
2022/09/15 05:02:05;;;;;;;2.63;0.80;;;;;;;15.15;100.00;100735.72;5079024;28;20372;-68
2022/09/15 05:04:30;;;;;;;3.83;1.05;;;;;;;15.18;100.00;100735.69;5079353;28;20383;-67
2022/09/15 05:06:56;;;;;;;5.50;1.00;;;;;;;15.15;100.00;100729.50;5072567;28;20528;-68
2022/09/15 05:09:21;;;;;;;3.85;1.10;;;;;;;15.09;100.00;100726.91;5077773;28;20151;-68
2022/09/15 05:11:46;;;;;;;4.78;0.98;;;;;;;15.04;100.00;100726.91;5073043;28;20032;-68
2022/09/15 05:14:12;;;;;;;1.25;0.75;;;;;;;15.03;100.00;100727.81;5070630;28;20115;-68
2022/09/15 05:16:38;;;;;;;5.70;1.42;;;;;;;15.03;100.00;100729.56;5071374;28;20134;-66
2022/09/15 05:19:04;;;;;;;2.97;0.80;;;;;;;15.01;100.00;100726.94;5072149;28;20500;-67
2022/09/15 05:21:29;;;;;;;3.33;1.00;;;;;;;15.01;100.00;100732.22;5072937;28;20032;-68
2022/09/15 05:23:55;;;;;;;1.85;0.65;;;;;;;15.03;100.00;100724.28;5072808;28;20100;-68
2022/09/15 05:26:27;;;;;;;1.83;0.80;;;;;;;15.01;100.00;100724.28;5072620;28;20469;-68
2022/09/15 05:28:53;;;;;;;2.63;0.77;;;;;;;15.00;100.00;100725.16;5072723;28;20484;-68
2022/09/15 05:31:23;;;;;;;6.70;0.88;;;;;;;14.97;100.00;100726.03;5072605;28;20107;-68
2022/09/15 05:33:49;;;;;;;5.72;1.15;;;;;;;14.98;100.00;100732.25;5072499;28;20032;-68
2022/09/15 05:36:17;;;;;;;4.85;1.00;;;;;;;14.98;100.00;100732.25;5055000;28;20115;-68
2022/09/15 05:38:42;;;;;;;9.25;1.00;;;;;;;14.99;100.00;100734.03;5072190;28;20040;-68
2022/09/15 05:41:16;;;;;;;3.72;1.27;;;;;;;15.02;100.00;100728.69;5053592;28;20074;-68
2022/09/15 05:43:43;;;;;;;6.65;0.90;;;;;;;15.04;100.00;100731.34;5072624;28;20032;-69
2022/09/15 05:46:10;;;;;;;6.43;0.90;;;;;;;15.07;100.00;100732.22;5072259;28;20095;-68
2022/09/15 05:48:36;;;;;;;10.95;1.77;;;;;;;15.11;100.00;100738.38;5053924;28;20028;-69
2022/09/15 05:51:02;;;;;;;13.02;2.92;;;;;;;15.14;100.00;100736.59;5071500;28;20499;-69
2022/09/15 05:53:28;;;;;;;3.38;0.90;;;;;;;15.16;100.00;100740.09;5071642;28;20541;-68
2022/09/15 05:55:55;;;;;;;4.03;1.08;;;;;;;15.22;100.00;100740.97;5072128;28;20020;-68
2022/09/15 05:58:20;;;;;;;3.38;1.10;;;;;;;15.24;100.00;100747.16;5071978;28;20081;-68
2022/09/15 06:00:46;;;;;;;5.18;1.00;;;;;;;15.27;100.00;100755.09;5072254;28;20479;-67
2022/09/15 06:03:13;;;;;;;6.35;2.17;;;;;;;15.29;100.00;100748.03;5075871;28;20077;-67
2022/09/15 06:05:39;;;;;;;4.93;0.95;;;;;;;15.33;100.00;100755.09;5076053;28;20036;-74
2022/09/15 06:08:04;;;;;;;3.95;0.98;;;;;;;15.36;100.00;100760.38;5071719;28;20049;-69
2022/09/15 06:10:30;;;;;;;7.15;1.90;;;;;;;15.38;100.00;100766.53;5075913;28;20418;-69
2022/09/15 06:12:56;;;;;;;12.88;3.83;;;;;;;15.40;100.00;100767.41;5074013;28;20034;-69
2022/09/15 06:15:22;;;;;;;9.43;2.88;;;;;;;15.42;100.00;100762.09;5077584;28;20028;-69
2022/09/15 06:17:48;;;;;;;15.20;3.90;;;;;;;15.41;100.00;100761.22;5073842;28;20024;-68
2022/09/15 06:20:13;;;;;;;8.77;2.10;;;;;;;15.43;100.00;100766.53;5074241;28;20538;-69
2022/09/15 06:22:39;;;;;;;10.43;1.88;;;;;;;15.44;100.00;100766.50;5067028;28;20031;-69
2022/09/15 06:25:05;;;;;;;4.72;0.95;;;;;;;15.44;100.00;100773.59;5074727;28;20035;-69
2022/09/15 06:27:30;;;;;;;5.93;1.65;;;;;;;15.43;100.00;100778.00;5056940;28;20488;-69
2022/09/15 06:29:56;;;;;;;5.00;1.67;;;;;;;15.46;100.00;100779.75;5073957;28;20056;-69
2022/09/15 06:32:21;;;;;;;7.95;1.20;;;;;;;15.44;100.00;100774.47;5072187;28;20364;-68
2022/09/15 06:34:47;;;;;;;7.90;1.10;;;;;;;15.45;100.00;100784.19;5075016;28;20029;-68
2022/09/15 06:37:12;;;;;;;7.80;1.30;;;;;;;15.47;100.00;100779.75;5075163;28;20028;-69
2022/09/15 06:39:38;;;;;;;3.22;0.93;;;;;;;15.50;100.00;100781.50;5075051;28;20069;-69
2022/09/15 06:42:04;;;;;;;8.85;1.20;;;;;;;15.55;100.00;100785.03;5074731;28;20025;-69
2022/09/15 06:44:29;;;;;;;3.90;1.25;;;;;;;15.59;100.00;100783.25;5072783;28;20361;-68
2022/09/15 06:46:55;;;;;;;4.53;1.10;;;;;;;15.60;100.00;100779.69;5072687;28;20060;-69
2022/09/15 06:49:20;;;;;;;11.73;1.60;;;;;;;15.64;100.00;100792.03;5073063;28;20507;-69
2022/09/15 06:51:46;;;;;;;3.60;1.58;;;;;;;15.70;100.00;100792.03;5082017;28;20392;-68
2022/09/15 06:54:13;;;;;;;6.30;1.10;;;;;;;15.74;100.00;100801.72;5073623;28;20031;-70
2022/09/15 06:56:38;;;;;;;2.85;0.90;;;;;;;15.77;100.00;100785.78;5074283;28;20062;-69
2022/09/15 06:59:04;;;;;;;6.10;1.10;;;;;;;15.87;100.00;100793.72;5074100;28;20037;-69
2022/09/15 07:01:31;;;;;;;8.38;1.20;;;;;;;15.91;100.00;100800.78;5076218;28;20510;-68
2022/09/15 07:03:59;;;;;;;7.43;1.20;;;;;;;15.94;100.00;100811.34;5077742;28;20111;-69
2022/09/15 07:06:27;;;;;;;5.90;1.10;;;;;;;15.98;100.00;100808.69;5074499;28;20016;-70
2022/09/15 07:08:53;;;;;;;8.23;1.35;;;;;;;16.01;100.00;100807.78;5083271;28;20048;-70
2022/09/15 07:11:18;;;;;;;6.75;0.90;;;;;;;16.01;100.00;100813.09;5074475;28;20047;-69
2022/09/15 07:13:44;;;;;;;6.00;1.52;;;;;;;16.02;100.00;100814.88;5074064;28;20101;-69
2022/09/15 07:16:11;;;;;;;8.27;2.17;;;;;;;16.02;100.00;100814.88;5072729;28;20135;-68
2022/09/15 07:18:37;;;;;;;11.13;1.63;;;;;;;16.01;100.00;100826.38;5074377;28;20032;-68
2022/09/15 07:21:11;;;;;;;13.45;1.48;;;;;;;16.01;100.00;100837.00;5074509;28;20016;-69
2022/09/15 07:23:37;;;;;;;9.73;1.27;;;;;;;15.97;100.00;100838.78;5074568;28;20491;-68
2022/09/15 07:26:11;;;;;;;15.05;2.00;;;;;;;15.96;100.00;100838.78;5074467;28;20032;-69
2022/09/15 07:28:38;;;;;;;11.48;1.60;;;;;;;15.92;100.00;100845.00;5069918;28;20379;-68
2022/09/15 07:31:05;;;;;;;7.25;1.27;;;;;;;15.87;100.00;100836.19;5083729;28;20031;-68
2022/09/15 07:33:32;;;;;;;8.30;0.98;;;;;;;15.88;100.00;100838.81;5073684;28;20466;-68
2022/09/15 07:35:59;;;;;;;8.73;1.40;;;;;;;15.90;100.00;100838.81;5074238;28;20024;-70
2022/09/15 07:38:25;;;;;;;5.15;1.00;;;;;;;15.95;100.00;100840.56;5073221;28;20145;-69
2022/09/15 07:40:50;;;;;;;6.65;1.75;;;;;;;16.01;100.00;100831.69;5072214;28;20115;-70
2022/09/15 07:43:15;;;;;;;5.88;1.25;;;;;;;16.07;100.00;100842.25;5073385;28;20031;-70
2022/09/15 07:45:41;;;;;;;6.80;1.05;;;;;;;16.15;100.00;100837.75;5073976;28;20017;-68
2022/09/15 07:48:06;;;;;;;8.60;1.13;;;;;;;16.22;100.00;100840.41;5077427;28;20383;-69
2022/09/15 07:50:31;;;;;;;9.30;2.13;;;;;;;16.28;100.00;100849.19;5073203;28;20449;-70
2022/09/15 07:52:57;;;;;;;6.55;0.82;;;;;;;16.36;100.00;100851.81;5079076;28;20519;-70
2022/09/15 07:55:23;;;;;;;5.22;0.88;;;;;;;16.46;100.00;100848.19;5073805;28;20107;-69
2022/09/15 07:58:06;;;;;;;4.57;1.08;;;;;;;16.55;100.00;100857.88;5073703;28;20055;-70
2022/09/15 08:00:31;;;;;;;2.05;0.60;;;;;;;16.59;100.00;100854.28;5072354;28;20032;-69
2022/09/15 08:02:56;;;;;;;7.45;1.13;;;;;;;16.65;100.00;100856.00;5072388;28;20025;-70
2022/09/15 08:05:27;;;;;;;4.22;0.90;;;;;;;16.75;100.00;100860.31;5091067;28;20028;-69
2022/09/15 08:07:56;;;;;;;2.97;0.70;;;;;;;16.81;100.00;100878.03;5072604;28;20424;-69
2022/09/15 08:10:23;;;;;;;8.82;0.98;;;;;;;16.78;100.00;100876.28;5070878;28;20044;-69
2022/09/15 08:12:49;;;;;;;6.72;1.15;;;;;;;16.75;100.00;100894.88;5081554;28;20031;-70
2022/09/15 08:15:15;;;;;;;2.83;0.98;;;;;;;16.73;100.00;100893.16;5073649;28;20020;-70
2022/09/15 08:17:40;;;;;;;6.80;0.70;;;;;;;16.77;100.00;100890.44;5073785;28;20046;-70
2022/09/15 08:20:06;;;;;;;6.97;1.20;;;;;;;16.80;100.00;100894.84;5073491;28;20028;-70
2022/09/15 08:22:32;;;;;;;6.03;0.90;;;;;;;16.85;100.00;100901.88;5073328;28;20024;-69
2022/09/15 08:24:57;;;;;;;6.03;0.80;;;;;;;16.90;100.00;100908.97;5072565;28;20028;-69
2022/09/15 08:27:23;;;;;;;2.30;0.68;;;;;;;17.00;100.00;100913.31;5082368;28;20074;-69
2022/09/15 08:29:48;;;;;;;6.13;0.95;;;;;;;16.98;100.00;100916.00;5073142;28;20025;-69
2022/09/15 08:32:13;;;;;;;5.20;1.00;;;;;;;16.97;100.00;100919.56;5071169;28;20056;-70
2022/09/15 08:34:39;;;;;;;1.23;0.52;;;;;;;17.01;100.00;100920.38;5072532;28;20578;-69
2022/09/15 08:37:04;;;;;;;2.58;0.60;;;;;;;16.98;100.00;100920.41;5071450;28;20025;-70
2022/09/15 08:39:30;;;;;;;5.15;0.90;;;;;;;17.05;100.00;100931.88;5054381;28;20040;-70
2022/09/15 08:41:58;;;;;;;4.25;0.60;;;;;;;17.11;100.00;100940.69;5072612;28;20095;-70
2022/09/15 08:44:37;;;;;;;1.90;0.57;;;;;;;17.24;100.00;100945.88;5072700;28;20476;-70
2022/09/15 08:47:24;;;;;;;1.42;0.90;;;;;;;17.18;100.00;100937.06;5075546;28;20460;-69
2022/09/15 08:50:00;;;;;;;5.00;0.93;;;;;;;17.09;100.00;100931.84;5071081;28;20036;-70
2022/09/15 08:52:37;;;;;;;3.67;0.50;;;;;;;17.14;100.00;100935.34;5070187;28;20060;-70
2022/09/15 08:55:13;;;;;;;3.92;0.60;;;;;;;17.08;100.00;100935.41;5070817;28;20059;-70
2022/09/15 08:57:39;;;;;;;11.18;1.10;;;;;;;16.95;100.00;100931.09;5070955;28;20028;-69
2022/09/15 09:00:11;;;;;;;2.92;0.80;;;;;;;17.05;100.00;100932.78;5072076;28;20028;-69
2022/09/15 09:02:49;;;;;;;3.20;0.70;;;;;;;17.09;100.00;100944.25;5070511;28;20050;-69
2022/09/15 09:05:30;;;;;;;3.28;0.90;;;;;;;17.07;100.00;100938.09;5070732;28;20490;-69
2022/09/15 09:08:09;;;;;;;1.20;0.65;;;;;;;17.05;100.00;100940.75;5073422;28;20024;-69
2022/09/15 09:10:50;;;;;;;4.07;0.70;;;;;;;17.00;100.00;100940.78;5072528;28;20116;-70
2022/09/15 09:13:27;;;;;;;8.38;0.98;;;;;;;17.05;100.00;100939.84;5071073;28;20461;-69
2022/09/15 09:16:02;;;;;;;3.95;0.70;;;;;;;17.08;100.00;100946.03;5072268;28;20032;-69
2022/09/15 09:18:53;;;;;;;4.03;0.90;;;;;;;17.11;100.00;100948.66;5072389;28;20039;-70
2022/09/15 09:21:18;;;;;;;7.00;1.10;;;;;;;17.17;100.00;100935.31;5065442;28;20066;-69
2022/09/15 09:24:11;;;;;;;2.78;0.70;;;;;;;17.27;100.00;100932.56;5072381;28;20220;-69
2022/09/15 09:26:38;;;;;;;3.63;1.27;;;;;;;17.35;100.00;100928.94;5072003;28;20504;-70
2022/09/15 09:29:12;;;;;;;5.28;0.90;;;;;;;17.40;100.00;100934.19;5072602;28;20082;-70
2022/09/15 09:31:39;;;;;;;2.47;0.63;;;;;;;17.38;100.00;100929.78;5072280;28;20400;-69
2022/09/15 09:34:13;;;;;;;7.18;1.33;;;;;;;17.42;100.00;100924.44;5072141;28;20025;-69
2022/09/15 09:36:38;;;;;;;4.75;0.90;;;;;;;17.52;100.00;100928.75;5074656;28;20032;-69
2022/09/15 09:39:04;;;;;;;7.38;0.70;;;;;;;17.65;99.42;100923.31;5074851;28;20036;-69
2022/09/15 09:41:37;;;;;;;3.58;0.68;;;;;;;17.83;98.58;100923.06;5075055;28;20028;-70
2022/09/15 09:44:09;;;;;;;4.13;0.80;;;;;;;17.99;92.89;100922.94;5074765;28;20028;-70
2022/09/15 09:46:34;;;;;;;2.38;0.57;;;;;;;18.08;84.76;100932.56;5075100;28;20024;-70
2022/09/15 09:49:17;;;;;;;3.83;0.73;;;;;;;18.24;83.11;100922.59;5074690;28;20047;-70
2022/09/15 09:51:51;;;;;;;;;;;;;;;18.39;89.96;100934.81;5075451;28;20484;-69
2022/09/15 09:54:19;;;;;;;3.97;0.70;;;;;;;18.47;81.21;100930.25;5082768;28;20363;-70
2022/09/15 09:56:48;;;;;;;3.13;0.60;;;;;;;18.51;74.52;100939.97;5096208;28;20334;-70
2022/09/15 09:59:34;;;;;;;2.13;0.40;;;;;;;18.62;73.18;100929.13;5081755;28;20082;-70
2022/09/15 10:02:26;;;;;;;7.53;0.77;;;;;;;18.69;73.87;100930.78;5073895;28;20032;-69
2022/09/15 10:05:01;;;;;;;6.72;1.00;;;;;;;18.74;71.20;100939.59;5066115;28;20032;-69
2022/09/15 10:07:26;;;;;;;7.00;0.80;;;;;;;18.83;73.49;100934.13;5074888;28;20052;-70
2022/09/15 10:09:58;;;;;;;4.50;1.00;;;;;;;18.93;75.62;100940.22;5074589;28;20044;-69
2022/09/15 10:12:32;;;;;;;4.78;1.27;;;;;;;18.92;67.79;100933.13;5074697;28;20035;-70
2022/09/15 10:15:04;;;;;;;3.13;0.60;;;;;;;18.90;62.44;100931.41;5074887;28;20416;-69
2022/09/15 10:17:43;;;;;;;1.17;0.47;;;;;;;18.91;64.03;100917.16;5073490;28;20037;-69
2022/09/15 10:20:48;;;;;;;2.95;0.80;;;;;;;18.95;64.74;100930.44;5073406;28;20107;-69
2022/09/15 10:23:16;;;;;;;4.05;0.75;;;;;;;18.98;59.38;100919.69;5070359;28;20112;-70
2022/09/15 10:25:42;;;;;;;2.72;0.75;;;;;;;19.03;57.76;100927.59;5073640;28;20032;-70
2022/09/15 10:28:08;;;;;;;5.93;0.70;;;;;;;19.06;61.54;100930.25;5074508;28;20028;-70
2022/09/15 10:30:35;;;;;;;2.60;0.70;;;;;;;19.10;61.12;100920.38;5073561;28;20373;-70
2022/09/15 10:33:23;;;;;;;7.40;0.95;;;;;;;19.19;67.41;100922.88;5073945;28;20082;-68
2022/09/15 10:35:48;;;;;;;5.22;1.05;;;;;;;19.24;62.86;100922.81;5074097;28;20115;-69
2022/09/15 10:38:31;;;;;;;2.03;0.77;;;;;;;19.19;62.77;100921.13;5071814;28;20104;-68
2022/09/15 10:41:31;;;;;;;3.17;0.70;;;;;;;19.13;61.15;100915.88;5074537;28;20028;-69
2022/09/15 10:44:14;;;;;;;2.55;0.50;;;;;;;19.13;59.14;100926.56;5074450;28;20020;-69
2022/09/15 10:47:04;;;;;;;2.60;0.75;;;;;;;19.13;62.38;100926.56;5074370;28;20482;-70
2022/09/15 10:49:48;;;;;;;4.45;1.13;;;;;;;19.12;62.27;100929.25;5073268;28;20439;-69
2022/09/15 10:52:37;;;;;;;5.05;0.82;;;;;;;19.13;61.73;100939.88;5074469;28;20025;-69
2022/09/15 10:55:45;;;;;;;6.50;0.70;;;;;;;19.10;61.72;100934.63;5075091;28;20024;-70
2022/09/15 10:58:13;;;;;;;3.20;0.70;;;;;;;19.39;66.08;100935.88;5073979;28;20110;-69
2022/09/15 11:01:17;;;;;;;11.77;0.90;;;;;;;19.43;62.52;100939.38;5074993;28;20032;-70
2022/09/15 11:03:45;;;;;;;;;;;;;;;19.37;63.79;100935.00;5071774;28;20087;-70
2022/09/15 11:06:30;;;;;;;6.95;1.20;;;;;;;19.26;65.41;100945.00;5074781;28;20359;-70
2022/09/15 11:09:01;;;;;;;3.28;0.80;;;;;;;19.15;64.15;100955.84;5074662;28;20048;-70
2022/09/15 11:11:51;;;;;;;8.15;0.85;;;;;;;19.12;66.02;100951.44;5074149;28;20025;-70
2022/09/15 11:14:30;;;;;;;4.78;0.80;;;;;;;19.20;66.06;100959.34;5074411;28;20470;-70
2022/09/15 11:17:25;;;;;;;4.20;1.00;;;;;;;19.08;66.27;100955.09;5074820;28;20066;-70
2022/09/15 11:20:12;;;;;;;1.67;0.82;;;;;;;19.07;64.44;100963.13;5074942;28;20028;-71
2022/09/15 11:22:51;;;;;;;4.88;0.90;;;;;;;18.97;61.30;100960.59;5074552;28;20155;-70
2022/09/15 11:25:21;;;;;;;3.55;0.70;;;;;;;18.86;61.73;100954.53;5074522;28;20020;-69
2022/09/15 11:28:09;;;;;;;2.50;0.63;;;;;;;18.73;67.35;100956.50;5054610;28;20068;-70
2022/09/15 11:30:42;;;;;;;6.72;1.17;;;;;;;18.77;67.01;100958.22;5067278;28;20044;-70
2022/09/15 11:33:20;;;;;;;5.45;1.10;;;;;;;18.78;68.56;100957.31;5072699;28;20075;-71